Time;durP1;ratioP1;P1;durP2;ratioP2;P2;SDS_P1;SDS_P2;PMS_P1;PMS_P2;Temp;Humidity;BMP_temperature;BMP_pressure;BME280_temperature;BME280_humidity;BME280_pressure;Samples;Min_cycle;Max_cycle;Signal;HPM_P1;HPM_P2
2022/12/28 00:00:16;;;;;;;1.50;1.17;;;;;19.00;100656.00;;;;2063077;28;20239;-53
2022/12/28 00:01:22;;;;;;;2.10;1.40;;;;;19.00;100659.00;;;;2063051;28;20211;-52
2022/12/28 00:02:23;;;;;;;2.10;1.30;;;;;19.00;100653.00;;;;2062381;28;20227;-53
2022/12/28 00:03:23;;;;;;;1.93;1.40;;;;;19.00;100651.00;;;;2054916;28;20214;-54
2022/12/28 00:04:23;;;;;;;2.20;1.27;;;;;19.00;100656.00;;;;2062715;28;20219;-54
2022/12/28 00:05:24;;;;;;;1.43;1.00;;;;;19.00;100649.00;;;;2063011;28;20306;-53
2022/12/28 00:06:25;;;;;;;1.30;1.20;;;;;19.00;100650.00;;;;2062061;28;20593;-53
2022/12/28 00:07:25;;;;;;;3.53;1.27;;;;;19.00;100649.00;;;;2061085;28;20218;-53
2022/12/28 00:08:25;;;;;;;2.43;1.40;;;;;19.00;100644.00;;;;2057035;28;20465;-53
2022/12/28 00:09:26;;;;;;;2.07;1.40;;;;;19.00;100641.00;;;;2054844;28;20223;-54
2022/12/28 00:10:26;;;;;;;1.20;0.97;;;;;19.00;100637.00;;;;2052606;28;20230;-53
2022/12/28 00:11:26;;;;;;;1.80;1.13;;;;;19.00;100634.00;;;;2053781;28;20220;-53
2022/12/28 00:12:28;;;;;;;2.03;1.33;;;;;19.00;100634.00;;;;2054373;28;20239;-54
2022/12/28 00:13:29;;;;;;;2.03;1.15;;;;;19.00;100644.00;;;;2046152;28;20219;-53
2022/12/28 00:14:29;;;;;;;1.57;0.93;;;;;19.00;100595.00;;;;2045648;28;20232;-53
2022/12/28 00:15:29;;;;;;;1.40;1.10;;;;;19.00;100643.00;;;;2054388;28;20872;-53
2022/12/28 00:16:33;;;;;;;2.70;1.20;;;;;19.00;100643.00;;;;2053418;28;20219;-53
2022/12/28 00:17:34;;;;;;;1.48;0.98;;;;;19.00;100635.00;;;;2054391;28;20241;-53
2022/12/28 00:18:34;;;;;;;1.83;1.10;;;;;19.00;100635.00;;;;2045872;28;20550;-55
2022/12/28 00:19:35;;;;;;;1.83;1.27;;;;;19.00;100624.00;;;;2046063;28;20348;-54
2022/12/28 00:20:35;;;;;;;1.23;0.80;;;;;18.90;100628.00;;;;2046492;28;20456;-55
2022/12/28 00:21:35;;;;;;;1.63;1.10;;;;;18.90;100646.00;;;;2046596;28;20204;-53
2022/12/28 00:22:36;;;;;;;2.00;1.17;;;;;18.90;100641.00;;;;2046044;28;20306;-52
2022/12/28 00:23:36;;;;;;;2.07;1.10;;;;;18.90;100633.00;;;;2046406;28;20242;-54
2022/12/28 00:24:36;;;;;;;2.90;1.57;;;;;19.00;100646.00;;;;2046316;28;20208;-54
2022/12/28 00:25:37;;;;;;;1.90;1.07;;;;;19.00;100636.00;;;;2046726;28;20216;-54
2022/12/28 00:26:37;;;;;;;1.63;1.17;;;;;19.00;100638.00;;;;2046672;28;20209;-54
2022/12/28 00:27:37;;;;;;;1.40;0.93;;;;;19.00;100636.00;;;;2046134;28;20236;-54
2022/12/28 00:28:38;;;;;;;1.50;1.00;;;;;19.00;100628.00;;;;2051708;28;20216;-54
2022/12/28 00:29:39;;;;;;;1.33;1.10;;;;;19.00;100645.00;;;;2050597;28;20211;-53
2022/12/28 00:30:39;;;;;;;1.60;1.00;;;;;19.00;100634.00;;;;2054119;28;21015;-52
2022/12/28 00:31:39;;;;;;;2.93;1.20;;;;;18.90;100633.00;;;;2054842;28;20223;-52
2022/12/28 00:32:40;;;;;;;1.60;1.00;;;;;18.90;100626.00;;;;2051059;28;20293;-53
2022/12/28 00:33:40;;;;;;;1.73;0.97;;;;;18.90;100646.00;;;;2056537;28;20220;-53
2022/12/28 00:34:40;;;;;;;1.67;1.07;;;;;18.90;100647.00;;;;2060775;28;20306;-53
2022/12/28 00:35:41;;;;;;;1.50;1.30;;;;;18.90;100641.00;;;;2062829;28;20218;-54
2022/12/28 00:36:41;;;;;;;1.70;1.10;;;;;19.00;100632.00;;;;2062638;28;20234;-54
2022/12/28 00:37:42;;;;;;;2.23;1.30;;;;;18.90;100635.00;;;;2062847;28;20319;-53
2022/12/28 00:38:42;;;;;;;3.33;1.30;;;;;19.00;100640.00;;;;2062738;28;20227;-55
2022/12/28 00:39:42;;;;;;;2.37;1.43;;;;;18.90;100633.00;;;;2062465;28;20233;-53
2022/12/28 00:40:43;;;;;;;1.40;1.10;;;;;19.00;100640.00;;;;2060723;28;20207;-54
2022/12/28 00:41:43;;;;;;;1.90;1.20;;;;;19.00;100640.00;;;;2053961;28;20276;-55
2022/12/28 00:42:43;;;;;;;2.00;1.23;;;;;19.00;100629.00;;;;2052291;28;20211;-55
2022/12/28 00:43:45;;;;;;;1.90;1.30;;;;;18.90;100629.00;;;;2054720;28;20220;-54
2022/12/28 00:44:45;;;;;;;3.30;1.30;;;;;18.90;100633.00;;;;2054656;28;20239;-53
2022/12/28 00:45:46;;;;;;;1.90;1.20;;;;;18.90;100628.00;;;;2054614;28;20741;-53
2022/12/28 00:46:47;;;;;;;1.80;1.00;;;;;18.90;100625.00;;;;2054575;28;20223;-53
2022/12/28 00:47:47;;;;;;;1.10;0.93;;;;;18.90;100615.00;;;;2054715;28;20459;-53
2022/12/28 00:48:47;;;;;;;1.73;1.00;;;;;18.90;100605.00;;;;2054745;28;20223;-53
2022/12/28 00:49:47;;;;;;;1.40;1.00;;;;;18.90;100598.00;;;;2054496;28;20298;-54
2022/12/28 00:50:48;;;;;;;1.97;1.20;;;;;18.90;100598.00;;;;2054530;28;20781;-53
2022/12/28 00:51:48;;;;;;;0.87;0.77;;;;;18.90;100593.00;;;;2054501;28;20948;-53
2022/12/28 00:52:49;;;;;;;2.23;1.37;;;;;18.90;100603.00;;;;2054694;28;20700;-53
2022/12/28 00:53:49;;;;;;;1.27;1.00;;;;;18.90;100578.00;;;;2054761;28;20247;-53
2022/12/28 00:54:50;;;;;;;1.10;0.80;;;;;18.90;100587.00;;;;2054352;28;20306;-54
2022/12/28 00:55:50;;;;;;;1.40;1.00;;;;;18.90;100572.00;;;;2054467;28;20220;-53
2022/12/28 00:56:50;;;;;;;1.43;1.17;;;;;18.90;100577.00;;;;2054565;28;20331;-52
2022/12/28 00:57:50;;;;;;;1.23;0.93;;;;;18.90;100572.00;;;;2054654;28;20450;-54
2022/12/28 00:58:55;;;;;;;1.80;1.23;;;;;18.90;100577.00;;;;2054558;28;20216;-53
2022/12/28 00:59:55;;;;;;;1.55;1.08;;;;;18.90;100574.00;;;;2054385;28;20295;-53
2022/12/28 01:00:55;;;;;;;1.67;1.00;;;;;18.90;100577.00;;;;2044626;28;20219;-54
2022/12/28 01:01:56;;;;;;;1.10;1.00;;;;;18.90;100568.00;;;;2053370;28;20211;-53
2022/12/28 01:02:56;;;;;;;1.87;1.00;;;;;18.90;100573.00;;;;2054449;28;20225;-53
2022/12/28 01:03:57;;;;;;;1.20;0.97;;;;;18.90;100578.00;;;;2060939;28;20215;-53
2022/12/28 01:04:57;;;;;;;2.03;0.90;;;;;18.90;100559.00;;;;2062470;28;20211;-53
2022/12/28 01:05:57;;;;;;;1.80;1.10;;;;;18.90;100566.00;;;;2061879;28;20215;-54
2022/12/28 01:06:58;;;;;;;1.90;0.93;;;;;18.90;100570.00;;;;2061972;28;20737;-54
2022/12/28 01:07:58;;;;;;;1.70;1.30;;;;;18.90;100568.00;;;;2056470;28;21011;-53
2022/12/28 01:08:59;;;;;;;1.00;0.90;;;;;18.90;100561.00;;;;2054427;28;20636;-53
2022/12/28 01:09:59;;;;;;;2.00;1.10;;;;;18.90;100562.00;;;;2054130;28;20593;-53
2022/12/28 01:10:59;;;;;;;1.20;1.00;;;;;18.90;100553.00;;;;2054458;28;20354;-53
2022/12/28 01:11:59;;;;;;;1.87;1.13;;;;;18.90;100547.00;;;;2051735;28;20265;-53
2022/12/28 01:13:00;;;;;;;1.40;0.90;;;;;18.90;100539.00;;;;2054717;28;20219;-53
2022/12/28 01:14:01;;;;;;;2.50;1.10;;;;;18.90;100544.00;;;;2054282;28;20259;-53
2022/12/28 01:15:02;;;;;;;1.88;1.08;;;;;18.90;100540.00;;;;2054386;28;20238;-53
2022/12/28 01:16:30;;;;;;;1.20;0.80;;;;;18.90;100548.00;;;;2054353;28;20317;-53
2022/12/28 01:17:31;;;;;;;1.30;0.90;;;;;18.90;100535.00;;;;2057726;28;20214;-53
2022/12/28 01:18:31;;;;;;;1.53;0.80;;;;;18.90;100542.00;;;;2053178;28;20703;-54
2022/12/28 01:19:31;;;;;;;1.00;0.90;;;;;18.90;100541.00;;;;2053586;28;20247;-54
2022/12/28 01:20:31;;;;;;;1.80;1.07;;;;;18.90;100544.00;;;;2062338;28;20202;-54
2022/12/28 01:21:32;;;;;;;1.67;1.20;;;;;18.90;100542.00;;;;2062558;28;20218;-53
2022/12/28 01:22:32;;;;;;;1.40;1.00;;;;;18.90;100543.00;;;;2053288;28;20230;-53
2022/12/28 01:23:33;;;;;;;1.53;1.00;;;;;18.90;100534.00;;;;2053901;28;20230;-53
2022/12/28 01:24:33;;;;;;;1.50;0.90;;;;;18.90;100527.00;;;;2062106;28;20242;-52
2022/12/28 01:25:33;;;;;;;2.20;1.13;;;;;18.90;100537.00;;;;2062320;28;20325;-53
2022/12/28 01:26:34;;;;;;;1.20;1.00;;;;;18.90;100532.00;;;;2062128;28;20695;-53
2022/12/28 01:27:34;;;;;;;1.60;1.10;;;;;18.90;100532.00;;;;2053431;28;20704;-53
2022/12/28 01:28:35;;;;;;;1.13;0.87;;;;;18.90;100525.00;;;;2053831;28;20712;-53
2022/12/28 01:29:35;;;;;;;1.90;0.97;;;;;18.90;100530.00;;;;2062119;28;20222;-52
2022/12/28 01:30:35;;;;;;;1.40;1.00;;;;;18.90;100528.00;;;;2062405;28;20215;-53
2022/12/28 01:31:36;;;;;;;1.53;0.90;;;;;18.90;100528.00;;;;2061755;28;20219;-53
2022/12/28 01:32:36;;;;;;;1.30;0.80;;;;;18.90;100526.00;;;;2054015;28;20296;-53
2022/12/28 01:33:36;;;;;;;1.13;0.90;;;;;18.90;100527.00;;;;2054294;28;20375;-53
2022/12/28 01:34:37;;;;;;;1.40;0.90;;;;;18.90;100526.00;;;;2054274;28;20220;-53
2022/12/28 01:35:37;;;;;;;1.93;1.07;;;;;18.90;100526.00;;;;2054269;28;20900;-53
2022/12/28 01:36:37;;;;;;;1.50;1.07;;;;;18.90;100527.00;;;;2054326;28;20239;-54
2022/12/28 01:37:38;;;;;;;1.30;0.87;;;;;18.90;100521.00;;;;2054224;28;20215;-53
2022/12/28 01:38:38;;;;;;;1.47;1.10;;;;;18.90;100504.00;;;;2054305;28;20332;-53
2022/12/28 01:39:38;;;;;;;1.40;0.90;;;;;18.90;100508.00;;;;2054046;28;20306;-53
2022/12/28 01:40:42;;;;;;;1.50;0.80;;;;;18.90;100502.00;;;;2054385;28;20230;-53
2022/12/28 01:41:43;;;;;;;1.33;0.98;;;;;18.90;100508.00;;;;2053230;28;20684;-53
2022/12/28 01:42:43;;;;;;;1.60;1.23;;;;;18.90;100502.00;;;;2053976;28;20223;-53
2022/12/28 01:43:52;;;;;;;2.17;1.00;;;;;18.90;100502.00;;;;2054393;28;20693;-53
2022/12/28 01:44:53;;;;;;;2.55;1.30;;;;;18.90;100492.00;;;;2062127;28;20222;-53
2022/12/28 01:45:53;;;;;;;0.93;0.80;;;;;18.90;100495.00;;;;2059046;28;20223;-53
2022/12/28 01:47:13;;;;;;;1.50;1.00;;;;;18.90;100496.00;;;;2054101;28;20214;-53
2022/12/28 01:48:18;;;;;;;1.00;0.80;;;;;18.80;100495.00;;;;2037890;29;20216;-53
2022/12/28 01:49:33;;;;;;;1.60;0.90;;;;;18.90;100490.00;;;;2037994;28;20323;-53
2022/12/28 01:50:33;;;;;;;1.70;0.90;;;;;18.80;100489.00;;;;2047538;28;20702;-53
2022/12/28 01:51:47;;;;;;;1.40;1.03;;;;;18.80;100484.00;;;;2054240;28;20203;-53
2022/12/28 01:52:51;;;;;;;1.33;0.93;;;;;18.90;100481.00;;;;2037568;29;20314;-53
2022/12/28 01:53:51;;;;;;;1.30;1.00;;;;;18.90;100480.00;;;;2029118;29;20319;-53
2022/12/28 01:54:59;;;;;;;1.20;0.90;;;;;18.80;100486.00;;;;2036804;29;20221;-53
2022/12/28 01:56:00;;;;;;;1.00;0.75;;;;;18.80;100481.00;;;;2041881;28;20708;-53
2022/12/28 01:57:00;;;;;;;2.10;1.10;;;;;18.90;100481.00;;;;2036986;29;20229;-53
2022/12/28 01:58:04;;;;;;;1.03;0.70;;;;;18.90;100482.00;;;;2037247;29;20224;-53
2022/12/28 01:59:05;;;;;;;0.90;0.70;;;;;18.90;100474.00;;;;2045693;28;20442;-53
2022/12/28 02:00:08;;;;;;;1.37;0.90;;;;;18.90;100474.00;;;;2037406;29;20650;-53
2022/12/28 02:01:08;;;;;;;1.17;0.80;;;;;18.90;100473.00;;;;2037844;28;20232;-53
2022/12/28 02:02:09;;;;;;;1.20;0.80;;;;;18.90;100475.00;;;;2044675;28;20239;-54
2022/12/28 02:03:11;;;;;;;1.97;0.73;;;;;18.80;100453.00;;;;2037288;29;20251;-53
2022/12/28 02:04:11;;;;;;;0.93;0.80;;;;;18.90;100470.00;;;;2047159;28;20212;-53
2022/12/28 02:05:12;;;;;;;1.27;0.97;;;;;18.80;100456.00;;;;2053274;28;20219;-53
2022/12/28 02:06:12;;;;;;;2.10;1.23;;;;;18.80;100468.00;;;;2045824;28;20227;-53
2022/12/28 02:07:14;;;;;;;2.13;1.03;;;;;18.80;100456.00;;;;2045286;28;20212;-53
2022/12/28 02:08:15;;;;;;;1.20;0.70;;;;;18.80;100463.00;;;;2036965;29;20213;-53
2022/12/28 02:09:18;;;;;;;2.00;0.97;;;;;18.80;100442.00;;;;2037295;29;20247;-53
2022/12/28 02:10:19;;;;;;;1.27;1.00;;;;;18.80;100451.00;;;;2052967;28;20272;-53
2022/12/28 02:11:19;;;;;;;1.50;1.03;;;;;18.80;100444.00;;;;2052837;28;20219;-53
2022/12/28 02:12:19;;;;;;;1.33;0.80;;;;;18.80;100452.00;;;;2028806;29;20229;-52
2022/12/28 02:13:20;;;;;;;1.47;0.90;;;;;18.80;100444.00;;;;2029241;29;20225;-53
2022/12/28 02:14:20;;;;;;;1.50;0.90;;;;;18.80;100449.00;;;;2053306;28;20321;-54
2022/12/28 02:15:21;;;;;;;1.87;0.90;;;;;18.80;100442.00;;;;2037491;29;20224;-53
2022/12/28 02:16:21;;;;;;;1.60;0.80;;;;;18.80;100440.00;;;;2037249;29;20733;-53
2022/12/28 02:17:21;;;;;;;1.23;1.00;;;;;18.80;100437.00;;;;2059825;28;20687;-53
2022/12/28 02:18:22;;;;;;;0.93;0.80;;;;;18.80;100439.00;;;;2051958;28;20712;-56
2022/12/28 02:19:46;;;;;;;1.20;0.80;;;;;18.80;100437.00;;;;2040673;29;20292;-55
2022/12/28 02:20:55;;;;;;;0.80;0.60;;;;;18.80;100441.00;;;;2048158;28;20600;-53
2022/12/28 02:22:17;;;;;;;1.35;0.75;;;;;18.80;100439.00;;;;2053391;28;20211;-54
2022/12/28 02:23:59;;;;;;;2.10;0.90;;;;;18.80;100437.00;;;;2053820;28;20679;-53
2022/12/28 02:25:21;;;;;;;2.70;1.08;;;;;18.80;100425.00;;;;2044871;28;20312;-54
2022/12/28 02:26:46;;;;;;;2.33;1.13;;;;;18.80;100418.00;;;;2053910;28;20219;-53
2022/12/28 02:28:11;;;;;;;1.10;0.70;;;;;18.80;100430.00;;;;2053044;28;20814;-53
2022/12/28 02:29:25;;;;;;;1.20;0.70;;;;;18.80;100415.00;;;;2053229;28;20239;-54
2022/12/28 02:30:25;;;;;;;1.10;0.70;;;;;18.80;100418.00;;;;2048087;28;20211;-53
2022/12/28 02:31:36;;;;;;;1.53;0.80;;;;;18.80;100410.00;;;;2046625;28;20226;-54
2022/12/28 02:32:37;;;;;;;1.40;1.00;;;;;18.80;100398.00;;;;2046313;28;20332;-53
2022/12/28 02:33:41;;;;;;;1.63;1.03;;;;;18.80;100393.00;;;;2053819;28;20211;-53
2022/12/28 02:35:10;;;;;;;1.10;0.80;;;;;18.80;100395.00;;;;2053394;28;20591;-53
2022/12/28 02:36:14;;;;;;;2.13;0.93;;;;;18.80;100398.00;;;;2049176;28;20314;-53
2022/12/28 02:37:20;;;;;;;1.45;1.02;;;;;18.80;100398.00;;;;2040057;29;20225;-53
2022/12/28 02:38:42;;;;;;;1.63;1.00;;;;;18.80;100392.00;;;;2027849;29;20272;-53
2022/12/28 02:39:46;;;;;;;1.25;0.75;;;;;18.80;100386.00;;;;2027307;29;20264;-52
2022/12/28 02:41:05;;;;;;;1.55;1.05;;;;;18.80;100397.00;;;;2022778;29;20229;-53
2022/12/28 02:42:05;;;;;;;1.30;0.85;;;;;18.80;100394.00;;;;2036961;28;20290;-53
2022/12/28 02:43:05;;;;;;;1.20;0.80;;;;;18.80;100380.00;;;;2044835;28;20204;-54
2022/12/28 02:44:06;;;;;;;2.03;0.90;;;;;18.80;100390.00;;;;2044329;28;20244;-53
2022/12/28 02:50:54;;;;;;;1.77;1.00;;;;;18.80;100383.00;;;;2059625;28;20211;-53
2022/12/28 02:51:57;;;;;;;1.95;0.93;;;;;18.80;100367.00;;;;2044649;29;20230;-53
2022/12/28 02:53:06;;;;;;;1.00;0.70;;;;;18.80;100372.00;;;;2038206;28;20249;-57
2022/12/28 02:56:09;;;;;;;1.50;0.80;;;;;18.80;100378.00;;;;2052010;28;20227;-53
2022/12/28 02:57:31;;;;;;;1.98;1.00;;;;;18.80;100367.00;;;;2044911;28;20208;-53
2022/12/28 02:59:09;;;;;;;1.63;0.90;;;;;18.80;100367.00;;;;2049115;28;20226;-53
2022/12/28 03:00:17;;;;;;;0.90;0.70;;;;;18.80;100353.00;;;;2015199;29;20310;-53
2022/12/28 03:01:20;;;;;;;1.95;0.80;;;;;18.80;100353.00;;;;2038244;29;20244;-53
2022/12/28 03:02:30;;;;;;;1.23;0.77;;;;;18.80;100361.00;;;;2044967;28;20273;-53
2022/12/28 03:03:42;;;;;;;1.10;0.80;;;;;18.80;100368.00;;;;2053434;28;20219;-53
2022/12/28 03:05:14;;;;;;;1.60;1.08;;;;;18.80;100358.00;;;;2053874;28;20219;-53
2022/12/28 03:08:18;;;;;;;0.90;0.63;;;;;18.80;100365.00;;;;2051995;28;20222;-53
2022/12/28 03:09:35;;;;;;;0.98;0.80;;;;;18.80;100351.00;;;;2045057;28;20238;-53
2022/12/28 03:10:42;;;;;;;1.20;0.80;;;;;18.80;100353.00;;;;2036005;29;20324;-53
2022/12/28 03:11:53;;;;;;;1.33;0.70;;;;;18.80;100354.00;;;;2048223;28;20222;-53
2022/12/28 03:12:57;;;;;;;1.80;1.00;;;;;18.70;100350.00;;;;2052873;28;20220;-53
2022/12/28 03:14:00;;;;;;;1.13;0.70;;;;;18.80;100342.00;;;;2045635;28;20219;-53
2022/12/28 03:15:11;;;;;;;0.90;0.77;;;;;18.80;100342.00;;;;2041923;28;20665;-57
2022/12/28 03:16:18;;;;;;;1.10;0.90;;;;;18.80;100349.00;;;;2030674;29;20300;-53
2022/12/28 03:31:58;;;;;;;0.70;0.60;;;;;18.70;100309.00;;;;2035208;29;20732;-53
2022/12/28 03:32:58;;;;;;;1.37;0.80;;;;;18.80;100307.00;;;;2035625;29;20248;-53
2022/12/28 03:34:07;;;;;;;1.00;0.80;;;;;18.80;100307.00;;;;2030612;29;20217;-53
2022/12/28 03:35:08;;;;;;;1.00;0.85;;;;;18.70;100309.00;;;;2039550;29;20688;-53
2022/12/28 03:36:23;;;;;;;1.10;0.60;;;;;18.70;100309.00;;;;2039182;29;20368;-53
2022/12/28 03:37:26;;;;;;;1.30;0.80;;;;;18.70;100295.00;;;;2048587;28;20286;-53
2022/12/28 03:38:45;;;;;;;1.15;0.73;;;;;18.70;100301.00;;;;2046613;29;20555;-53
2022/12/28 03:40:11;;;;;;;1.23;0.80;;;;;18.80;100308.00;;;;2042520;28;20247;-53
2022/12/28 03:41:13;;;;;;;1.58;0.70;;;;;18.80;100293.00;;;;2046357;28;20634;-53
2022/12/28 03:43:45;;;;;;;1.35;0.60;;;;;18.80;100302.00;;;;2036520;28;20212;-53
2022/12/28 03:44:49;;;;;;;1.33;0.85;;;;;18.70;100304.00;;;;2034404;29;20292;-52
2022/12/28 03:45:59;;;;;;;0.88;0.60;;;;;18.80;100311.00;;;;2031444;29;20301;-53
2022/12/28 03:47:07;;;;;;;1.08;0.70;;;;;18.70;100309.00;;;;2038697;29;20628;-53
2022/12/28 03:48:07;;;;;;;1.00;0.65;;;;;18.70;100311.00;;;;2038215;29;20816;-53
2022/12/28 03:49:08;;;;;;;1.43;0.80;;;;;18.70;100299.00;;;;2044637;29;20212;-54
2022/12/28 03:50:08;;;;;;;0.83;0.60;;;;;18.70;100294.00;;;;2046342;28;20216;-53
2022/12/28 03:51:08;;;;;;;1.43;0.80;;;;;18.70;100285.00;;;;2046522;29;20216;-53
2022/12/28 03:52:09;;;;;;;1.37;1.00;;;;;18.70;100296.00;;;;2045617;29;20263;-53
2022/12/28 03:53:09;;;;;;;0.90;0.60;;;;;18.70;100293.00;;;;2054000;28;20216;-53
2022/12/28 03:54:15;;;;;;;1.00;0.70;;;;;18.70;100288.00;;;;2046271;29;20248;-53
2022/12/28 03:55:17;;;;;;;1.05;0.70;;;;;18.70;100288.00;;;;2029906;28;20220;-53
2022/12/28 03:56:19;;;;;;;1.52;0.70;;;;;18.70;100287.00;;;;2046991;28;20216;-53
2022/12/28 03:57:21;;;;;;;0.90;0.60;;;;;18.70;100287.00;;;;2054514;28;21033;-53
2022/12/28 03:58:22;;;;;;;0.82;0.60;;;;;18.70;100286.00;;;;2062856;28;20207;-53
2022/12/28 03:59:22;;;;;;;1.27;0.80;;;;;18.70;100287.00;;;;2063170;28;20217;-53
2022/12/28 04:00:22;;;;;;;1.20;0.60;;;;;18.70;100282.00;;;;2062180;28;20278;-53
2022/12/28 04:01:23;;;;;;;1.93;0.83;;;;;18.70;100286.00;;;;2062985;28;20306;-54
2022/12/28 04:02:23;;;;;;;1.63;0.70;;;;;18.70;100284.00;;;;2062569;28;20296;-53
2022/12/28 04:03:23;;;;;;;1.53;0.70;;;;;18.70;100279.00;;;;2063020;28;20210;-53
2022/12/28 04:04:24;;;;;;;1.67;0.90;;;;;18.70;100285.00;;;;2063094;28;20210;-53
2022/12/28 04:05:24;;;;;;;1.40;0.70;;;;;18.70;100273.00;;;;2054404;28;20699;-53
2022/12/28 04:06:25;;;;;;;1.00;0.70;;;;;18.70;100271.00;;;;2054107;28;20298;-53
2022/12/28 04:07:25;;;;;;;0.80;0.60;;;;;18.70;100271.00;;;;2062809;28;20253;-52
2022/12/28 04:08:26;;;;;;;2.17;0.87;;;;;18.70;100266.00;;;;2054360;28;20609;-53
2022/12/28 04:09:28;;;;;;;0.90;0.67;;;;;18.70;100269.00;;;;2054008;28;20212;-53
2022/12/28 04:10:29;;;;;;;1.02;0.68;;;;;18.70;100275.00;;;;2062935;28;20278;-53
2022/12/28 04:11:29;;;;;;;1.00;0.70;;;;;18.70;100266.00;;;;2062788;28;20222;-53
2022/12/28 04:12:29;;;;;;;0.90;0.70;;;;;18.70;100259.00;;;;2062597;28;20225;-53
2022/12/28 04:13:30;;;;;;;1.07;0.80;;;;;18.70;100264.00;;;;2063004;28;20277;-52
2022/12/28 04:14:30;;;;;;;0.93;0.70;;;;;18.70;100261.00;;;;2045925;29;20257;-53
2022/12/28 04:15:31;;;;;;;1.73;0.70;;;;;18.70;100258.00;;;;2046327;29;20727;-53
2022/12/28 04:16:31;;;;;;;1.10;0.73;;;;;18.70;100256.00;;;;2062670;28;20730;-53
2022/12/28 04:17:31;;;;;;;1.30;0.90;;;;;18.70;100263.00;;;;2062797;28;20297;-53
2022/12/28 04:18:32;;;;;;;1.53;0.90;;;;;18.70;100261.00;;;;2061883;28;20237;-53
2022/12/28 04:19:32;;;;;;;0.70;0.60;;;;;18.70;100259.00;;;;2059468;28;20265;-53
2022/12/28 04:20:32;;;;;;;1.20;0.63;;;;;18.70;100257.00;;;;2063113;28;20745;-53
2022/12/28 04:21:33;;;;;;;1.30;0.67;;;;;18.70;100261.00;;;;2063049;28;20214;-53
2022/12/28 04:22:33;;;;;;;1.77;0.80;;;;;18.70;100263.00;;;;2062320;28;20619;-53
2022/12/28 04:23:33;;;;;;;1.60;0.70;;;;;18.70;100255.00;;;;2062876;28;20223;-53
2022/12/28 04:24:34;;;;;;;1.03;0.80;;;;;18.70;100263.00;;;;2062837;28;20241;-53
2022/12/28 04:25:34;;;;;;;1.17;0.80;;;;;18.70;100258.00;;;;2062932;28;20226;-53
2022/12/28 04:26:34;;;;;;;0.90;0.70;;;;;18.70;100261.00;;;;2062852;28;20350;-53
2022/12/28 04:27:35;;;;;;;1.33;0.80;;;;;18.70;100253.00;;;;2062566;28;20229;-53
2022/12/28 04:28:35;;;;;;;1.07;0.70;;;;;18.70;100261.00;;;;2062436;28;20246;-53
2022/12/28 04:29:36;;;;;;;1.10;0.60;;;;;18.70;100254.00;;;;2062915;28;20277;-53
2022/12/28 04:30:36;;;;;;;1.03;0.70;;;;;18.70;100248.00;;;;2056586;28;20233;-53
2022/12/28 04:31:36;;;;;;;1.20;0.83;;;;;18.70;100251.00;;;;2054845;28;20219;-52
2022/12/28 04:32:37;;;;;;;1.10;0.60;;;;;18.70;100238.00;;;;2054510;28;20221;-54
2022/12/28 04:33:37;;;;;;;0.87;0.63;;;;;18.70;100257.00;;;;2060228;28;20221;-52
2022/12/28 04:34:37;;;;;;;1.10;0.60;;;;;18.70;100245.00;;;;2060122;28;20226;-53
2022/12/28 04:35:38;;;;;;;1.40;0.73;;;;;18.70;100250.00;;;;2054873;28;20715;-53
2022/12/28 04:36:38;;;;;;;0.80;0.67;;;;;18.70;100243.00;;;;2054771;28;20702;-53
2022/12/28 04:37:38;;;;;;;0.90;0.70;;;;;18.70;100242.00;;;;2054606;28;20703;-52
2022/12/28 04:38:39;;;;;;;1.27;0.60;;;;;18.70;100239.00;;;;2054407;28;20680;-53
2022/12/28 04:39:39;;;;;;;0.80;0.70;;;;;18.70;100231.00;;;;2054805;28;20707;-52
2022/12/28 04:40:39;;;;;;;1.00;0.60;;;;;18.70;100229.00;;;;2054821;28;20322;-53
2022/12/28 04:41:40;;;;;;;1.30;0.60;;;;;18.70;100221.00;;;;2054846;28;20238;-53
2022/12/28 04:42:40;;;;;;;1.00;0.60;;;;;18.70;100225.00;;;;2054476;28;20717;-53
2022/12/28 04:43:40;;;;;;;1.13;0.80;;;;;18.70;100229.00;;;;2054588;28;20361;-53
2022/12/28 04:44:41;;;;;;;1.23;0.70;;;;;18.70;100232.00;;;;2053460;28;20227;-53
2022/12/28 04:45:41;;;;;;;1.20;0.70;;;;;18.70;100224.00;;;;2054177;28;20233;-53
2022/12/28 04:46:41;;;;;;;1.17;0.67;;;;;18.70;100230.00;;;;2054818;28;20224;-52
2022/12/28 04:47:42;;;;;;;1.10;0.60;;;;;18.70;100233.00;;;;2054643;28;20219;-53
2022/12/28 04:48:42;;;;;;;1.00;0.70;;;;;18.70;100230.00;;;;2054584;28;20228;-52
2022/12/28 04:49:43;;;;;;;1.73;0.70;;;;;18.70;100226.00;;;;2054644;28;20242;-53
2022/12/28 04:50:43;;;;;;;1.00;0.70;;;;;18.70;100231.00;;;;2054799;28;20911;-53
2022/12/28 04:51:43;;;;;;;0.93;0.50;;;;;18.60;100225.00;;;;2054687;28;20234;-53
2022/12/28 04:52:43;;;;;;;0.80;0.57;;;;;18.70;100232.00;;;;2054482;28;20234;-53
2022/12/28 04:53:44;;;;;;;1.00;0.70;;;;;18.60;100226.00;;;;2054681;28;20306;-53
2022/12/28 04:54:44;;;;;;;0.70;0.60;;;;;18.70;100229.00;;;;2054507;28;20215;-53
2022/12/28 04:55:45;;;;;;;1.47;0.87;;;;;18.70;100230.00;;;;2054801;28;20243;-53
2022/12/28 04:56:45;;;;;;;1.10;0.73;;;;;18.70;100221.00;;;;2054819;28;20248;-52
2022/12/28 04:57:45;;;;;;;1.10;0.80;;;;;18.70;100228.00;;;;2054209;28;20219;-58
2022/12/28 04:58:46;;;;;;;0.80;0.60;;;;;18.70;100222.00;;;;2054655;28;20229;-54
2022/12/28 04:59:46;;;;;;;1.00;0.60;;;;;18.60;100231.00;;;;2054666;28;20232;-54
2022/12/28 05:00:46;;;;;;;1.17;0.70;;;;;18.60;100225.00;;;;2054650;28;20739;-53
2022/12/28 05:01:47;;;;;;;1.20;0.60;;;;;18.70;100214.00;;;;2054683;28;20762;-54
2022/12/28 05:02:47;;;;;;;0.73;0.50;;;;;18.70;100208.00;;;;2054500;28;20223;-53
2022/12/28 05:03:48;;;;;;;1.30;0.67;;;;;18.70;100210.00;;;;2054871;28;20211;-54
2022/12/28 05:04:48;;;;;;;0.90;0.50;;;;;18.70;100199.00;;;;2054592;28;20246;-53
2022/12/28 05:05:48;;;;;;;1.07;0.73;;;;;18.70;100204.00;;;;2054752;28;20227;-53
2022/12/28 05:06:48;;;;;;;0.83;0.60;;;;;18.60;100205.00;;;;2062240;28;20317;-53
2022/12/28 05:07:49;;;;;;;0.97;0.70;;;;;18.70;100211.00;;;;2062495;28;20218;-54
2022/12/28 05:08:49;;;;;;;1.30;0.80;;;;;18.70;100214.00;;;;2062671;28;20237;-53
2022/12/28 05:09:50;;;;;;;0.80;0.60;;;;;18.70;100208.00;;;;2053681;28;20231;-53
2022/12/28 05:10:50;;;;;;;0.70;0.53;;;;;18.70;100196.00;;;;2053674;28;20970;-54
2022/12/28 05:11:50;;;;;;;1.10;0.60;;;;;18.60;100202.00;;;;2053510;28;20727;-53
2022/12/28 05:12:51;;;;;;;0.77;0.57;;;;;18.70;100200.00;;;;2054035;28;20747;-52
2022/12/28 05:13:51;;;;;;;1.00;0.60;;;;;18.70;100204.00;;;;2061556;28;20718;-53
2022/12/28 05:14:52;;;;;;;1.00;0.53;;;;;18.60;100200.00;;;;2062309;28;20883;-53
2022/12/28 05:15:52;;;;;;;0.80;0.68;;;;;18.70;100201.00;;;;2062754;28;20299;-53
2022/12/28 05:16:53;;;;;;;0.90;0.60;;;;;18.70;100202.00;;;;2062553;28;20222;-53
2022/12/28 05:17:54;;;;;;;0.80;0.60;;;;;18.60;100203.00;;;;2062137;28;20218;-53
2022/12/28 05:18:55;;;;;;;1.60;0.90;;;;;18.60;100210.00;;;;2062188;28;20282;-52
2022/12/28 05:19:55;;;;;;;2.05;0.90;;;;;18.60;100217.00;;;;2062275;28;20218;-53
2022/12/28 05:21:10;;;;;;;0.80;0.63;;;;;18.60;100214.00;;;;2062542;28;20762;-53
2022/12/28 05:22:11;;;;;;;1.10;0.60;;;;;18.70;100214.00;;;;2062162;28;20213;-52
2022/12/28 05:23:12;;;;;;;1.30;0.80;;;;;18.70;100209.00;;;;2062675;28;20214;-53
2022/12/28 05:24:12;;;;;;;0.93;0.70;;;;;18.70;100213.00;;;;2055712;28;20478;-53
2022/12/28 05:25:12;;;;;;;0.80;0.60;;;;;18.60;100225.00;;;;2045714;28;20228;-53
2022/12/28 05:26:14;;;;;;;1.30;0.70;;;;;18.60;100214.00;;;;2045879;28;20220;-53
2022/12/28 05:27:14;;;;;;;1.00;0.70;;;;;18.60;100205.00;;;;2054512;28;20246;-53
2022/12/28 05:28:15;;;;;;;1.40;0.60;;;;;18.60;100219.00;;;;2057352;28;20261;-53
2022/12/28 05:29:15;;;;;;;0.70;0.50;;;;;18.60;100216.00;;;;2062592;28;20301;-53
2022/12/28 05:30:15;;;;;;;1.13;0.70;;;;;18.60;100204.00;;;;2062557;28;20236;-53
2022/12/28 05:31:17;;;;;;;0.87;0.53;;;;;18.60;100209.00;;;;2062342;28;20242;-53
2022/12/28 05:32:17;;;;;;;1.13;0.68;;;;;18.70;100213.00;;;;2061879;28;20217;-53
2022/12/28 05:33:18;;;;;;;1.33;0.70;;;;;18.70;100211.00;;;;2062572;28;20671;-54
2022/12/28 05:34:18;;;;;;;1.23;0.53;;;;;18.70;100214.00;;;;2062406;28;20693;-54
2022/12/28 05:35:19;;;;;;;1.13;0.70;;;;;18.70;100209.00;;;;2062418;28;20233;-53
2022/12/28 05:36:21;;;;;;;1.30;0.80;;;;;18.60;100210.00;;;;2062228;28;20325;-53